createdAt,value
2018-06-25T00:00:08.166Z,28.10
2018-06-25T00:02:37.543Z,28.10
2018-06-25T00:05:06.953Z,28.10
2018-06-25T00:12:33.915Z,28.10
2018-06-25T00:15:03.272Z,28.10
2018-06-25T00:17:32.641Z,28.10
2018-06-25T00:29:57.106Z,28.00
2018-06-25T00:32:26.467Z,28.00
2018-06-25T00:34:55.822Z,28.00
2018-06-25T00:37:25.188Z,28.00
2018-06-25T00:42:23.369Z,28.00
2018-06-25T00:44:52.726Z,28.00
2018-06-25T00:47:22.079Z,28.00
2018-06-25T00:52:20.231Z,28.00
2018-06-25T00:54:49.587Z,28.00
2018-06-25T00:57:18.916Z,27.90
2018-06-25T00:59:53.782Z,27.90
2018-06-25T01:02:23.554Z,27.90
2018-06-25T01:04:52.962Z,27.90
2018-06-25T01:07:22.330Z,27.90
2018-06-25T01:09:51.695Z,27.90
2018-06-25T01:12:21.022Z,28.00
2018-06-25T01:17:19.144Z,28.00
2018-06-25T01:19:48.515Z,28.00
2018-06-25T01:24:46.638Z,28.00
2018-06-25T01:27:15.939Z,28.00
2018-06-25T01:29:45.339Z,28.00
2018-06-25T01:32:14.687Z,28.00
2018-06-25T01:34:44.058Z,28.00
2018-06-25T01:37:13.404Z,28.00
2018-06-25T01:42:17.911Z,28.00
2018-06-25T01:44:47.212Z,28.00
2018-06-25T01:47:16.532Z,28.00
2018-06-25T01:49:45.894Z,28.00
2018-06-25T01:52:15.276Z,28.00
2018-06-25T01:54:44.634Z,28.00
2018-06-25T01:57:13.991Z,28.00
2018-06-25T01:59:43.309Z,28.00
2018-06-25T02:02:12.685Z,27.90
2018-06-25T02:04:42.022Z,28.00
2018-06-25T02:07:11.325Z,28.00
2018-06-25T02:09:40.628Z,28.00
2018-06-25T02:12:09.995Z,28.00
2018-06-25T02:14:39.337Z,28.00
2018-06-25T02:17:08.740Z,27.90
2018-06-25T02:19:38.093Z,28.00
2018-06-25T02:22:07.468Z,28.00
2018-06-25T02:27:05.646Z,28.00
2018-06-25T02:29:34.966Z,28.00
2018-06-25T02:32:04.305Z,28.00
2018-06-25T02:34:33.695Z,28.00
2018-06-25T02:37:03.056Z,28.00
2018-06-25T02:42:01.291Z,28.00
2018-06-25T02:44:30.640Z,28.00
2018-06-25T02:46:59.975Z,28.00
2018-06-25T02:49:29.325Z,28.00
2018-06-25T02:51:58.674Z,28.00
2018-06-25T02:54:28.029Z,28.00
2018-06-25T02:56:57.399Z,28.00
2018-06-25T02:59:26.748Z,28.00
2018-06-25T03:01:56.158Z,28.00
2018-06-25T03:06:54.346Z,28.00
2018-06-25T03:11:52.544Z,27.90
2018-06-25T03:16:50.747Z,27.90
2018-06-25T03:19:20.128Z,27.90
2018-06-25T03:21:49.480Z,27.80
2018-06-25T03:24:18.819Z,27.80
2018-06-25T03:26:48.192Z,27.80
2018-06-25T03:29:17.522Z,27.80
2018-06-25T03:31:46.872Z,27.80
2018-06-25T03:34:16.232Z,27.80
2018-06-25T03:36:45.562Z,27.70
2018-06-25T03:39:14.913Z,27.70
2018-06-25T03:41:44.312Z,27.70
2018-06-25T03:44:13.631Z,27.70
2018-06-25T03:46:43.010Z,27.70
2018-06-25T03:49:12.412Z,27.70
2018-06-25T03:51:41.732Z,27.70
2018-06-25T03:54:11.106Z,27.70
2018-06-25T03:56:43.586Z,27.60
2018-06-25T03:59:12.940Z,27.60
2018-06-25T04:01:42.323Z,27.60
2018-06-25T04:04:11.732Z,27.60
2018-06-25T04:06:41.716Z,27.60
2018-06-25T04:09:12.195Z,27.60
2018-06-25T04:11:41.743Z,27.60
2018-06-25T04:14:11.482Z,27.60
2018-06-25T04:16:40.860Z,27.60
2018-06-25T04:19:10.198Z,27.60
2018-06-25T04:26:37.224Z,27.50
2018-06-25T04:29:06.589Z,27.40
2018-06-25T04:31:36.049Z,27.50
2018-06-25T04:34:05.466Z,27.40
2018-06-25T04:36:34.812Z,27.40
2018-06-25T04:39:04.381Z,27.40
2018-06-25T04:41:33.714Z,27.40
2018-06-25T04:44:03.025Z,27.40
2018-06-25T04:46:32.424Z,27.40
2018-06-25T04:49:01.773Z,27.40
2018-06-25T04:51:31.139Z,27.40
2018-06-25T04:54:00.491Z,27.50
2018-06-25T04:58:58.668Z,27.40
2018-06-25T05:01:28.074Z,27.40
2018-06-25T05:03:57.443Z,27.30
2018-06-25T05:06:26.781Z,27.30
2018-06-25T05:08:56.166Z,27.40
2018-06-25T05:11:25.555Z,27.30
2018-06-25T05:13:54.899Z,27.30
2018-06-25T05:21:21.857Z,27.30
2018-06-25T05:23:51.223Z,27.30
2018-06-25T05:26:20.580Z,27.40
2018-06-25T05:31:18.711Z,27.40
2018-06-25T05:33:48.037Z,27.40
2018-06-25T05:36:17.406Z,27.50
2018-06-25T05:38:46.784Z,27.40
2018-06-25T05:43:44.965Z,27.40
2018-06-25T05:46:14.334Z,27.30
2018-06-25T05:48:43.674Z,27.30
2018-06-25T05:53:41.839Z,27.20
2018-06-25T05:56:11.223Z,27.20
2018-06-25T05:58:40.532Z,27.20
2018-06-25T06:01:09.952Z,27.30
2018-06-25T06:06:08.057Z,27.30
2018-06-25T06:11:06.452Z,27.40
2018-06-25T06:16:04.757Z,27.30
2018-06-25T06:18:34.190Z,27.30
2018-06-25T06:21:03.614Z,27.30
2018-06-25T06:23:33.422Z,27.40
2018-06-25T06:26:02.770Z,27.40
2018-06-25T06:28:32.306Z,27.30
2018-06-25T06:31:01.712Z,27.30
2018-06-25T06:33:31.152Z,27.20
2018-06-25T06:36:00.574Z,27.10
2018-06-25T06:38:30.077Z,27.10
2018-06-25T06:45:57.223Z,27.20
2018-06-25T06:48:26.865Z,27.20
2018-06-25T06:55:54.150Z,27.30
2018-06-25T07:00:52.315Z,27.50
2018-06-25T07:03:21.665Z,27.40
2018-06-25T07:05:51.002Z,27.40
2018-06-25T07:08:20.398Z,27.30
2018-06-25T07:10:49.779Z,27.30
2018-06-25T07:13:19.146Z,27.30
2018-06-25T07:15:48.534Z,27.30
2018-06-25T07:18:17.936Z,27.20
2018-06-25T07:20:47.388Z,27.30
2018-06-25T07:23:16.971Z,27.20
2018-06-25T07:28:15.178Z,27.20
2018-06-25T07:30:44.790Z,27.20
2018-06-25T07:33:14.181Z,27.20
2018-06-25T07:35:43.646Z,27.20
2018-06-25T07:38:13.024Z,27.20
2018-06-25T07:40:42.417Z,27.20
2018-06-25T07:43:13.153Z,27.10
2018-06-25T07:45:42.469Z,27.00
2018-06-25T07:48:11.885Z,27.00
2018-06-25T07:50:41.282Z,26.90
2018-06-25T07:53:10.742Z,26.90
2018-06-25T07:55:40.209Z,26.90
2018-06-25T07:58:09.765Z,27.00
2018-06-25T08:00:39.198Z,26.90
2018-06-25T08:03:08.614Z,27.00
2018-06-25T08:05:37.986Z,26.90
2018-06-25T08:08:07.428Z,27.00
2018-06-25T08:10:36.902Z,27.00
2018-06-25T08:13:06.273Z,27.00
2018-06-25T08:15:35.745Z,27.00
2018-06-25T08:18:05.177Z,27.00
2018-06-25T08:20:34.674Z,27.00
2018-06-25T08:23:04.131Z,27.00
2018-06-25T08:25:33.523Z,27.00
2018-06-25T08:28:02.928Z,27.10
2018-06-25T08:30:32.362Z,27.20
2018-06-25T08:33:01.847Z,27.20
2018-06-25T08:35:31.283Z,27.30
2018-06-25T08:38:00.712Z,27.30
2018-06-25T08:40:30.061Z,27.30
2018-06-25T08:42:59.460Z,27.40
2018-06-25T08:45:28.896Z,27.40
2018-06-25T08:47:58.336Z,27.40
2018-06-25T08:50:27.759Z,27.50
2018-06-25T08:52:57.098Z,27.50
2018-06-25T08:55:26.510Z,27.50
2018-06-25T08:57:55.970Z,27.40
2018-06-25T09:00:25.385Z,27.40
2018-06-25T09:02:54.871Z,27.40
2018-06-25T09:05:24.257Z,27.40
2018-06-25T09:07:53.725Z,27.50
2018-06-25T09:10:23.127Z,27.50
2018-06-25T09:12:52.514Z,27.50
2018-06-25T09:17:50.845Z,27.50
2018-06-25T09:20:20.259Z,27.60
2018-06-25T09:22:49.641Z,27.70
2018-06-25T09:25:18.974Z,27.70
2018-06-25T09:27:49.685Z,27.70
2018-06-25T09:30:20.236Z,27.70
2018-06-25T09:32:51.407Z,27.70
2018-06-25T09:35:21.235Z,27.80
2018-06-25T09:40:24.614Z,27.80
2018-06-25T09:42:53.970Z,27.80
2018-06-25T09:45:23.329Z,27.90
2018-06-25T09:47:52.760Z,28.00
2018-06-25T09:52:51.281Z,28.00
2018-06-25T09:55:20.773Z,28.00
2018-06-25T09:57:50.125Z,28.00
2018-06-25T10:00:24.602Z,27.90
2018-06-25T10:03:00.779Z,27.90
2018-06-25T10:05:30.192Z,27.90
2018-06-25T10:07:59.587Z,28.00
2018-06-25T10:10:28.998Z,28.00
2018-06-25T10:12:58.452Z,27.90
2018-06-25T10:17:57.162Z,27.90
2018-06-25T10:20:26.597Z,28.00
2018-06-25T10:22:55.995Z,28.00
2018-06-25T10:25:25.433Z,28.00
2018-06-25T10:27:54.893Z,28.10
2018-06-25T10:30:24.322Z,28.10
2018-06-25T10:32:53.837Z,28.10
2018-06-25T10:35:23.224Z,28.10
2018-06-25T10:37:52.741Z,28.20
2018-06-25T10:40:22.177Z,28.30
2018-06-25T10:45:20.599Z,28.40
2018-06-25T10:47:50.132Z,28.50
2018-06-25T10:50:19.491Z,28.60
2018-06-25T10:55:17.952Z,28.60
2018-06-25T11:00:16.644Z,28.70
2018-06-25T11:02:47.104Z,28.70
2018-06-25T11:05:17.554Z,28.80
2018-06-25T11:07:47.115Z,28.80
2018-06-25T11:10:16.510Z,28.80
2018-06-25T11:12:46.110Z,28.90
2018-06-25T11:15:15.608Z,28.90
2018-06-25T11:17:45.032Z,28.90
2018-06-25T11:20:14.879Z,29.00
2018-06-25T11:25:13.049Z,29.00
2018-06-25T11:27:42.547Z,29.00
2018-06-25T11:30:11.994Z,29.10
2018-06-25T11:32:41.356Z,29.10
2018-06-25T11:35:10.779Z,29.20
2018-06-25T11:40:08.965Z,29.20
2018-06-25T11:42:38.336Z,29.20
2018-06-25T11:45:07.698Z,29.10
2018-06-25T11:47:37.153Z,29.00
2018-06-25T11:50:06.764Z,29.00
2018-06-25T11:52:36.924Z,29.00
2018-06-25T11:55:06.415Z,29.00
2018-06-25T12:00:05.255Z,28.90
2018-06-25T12:05:03.716Z,29.10
2018-06-25T12:10:02.005Z,29.00
2018-06-25T12:15:00.291Z,28.80
2018-06-25T12:22:27.665Z,28.50
2018-06-25T12:24:57.140Z,28.40
2018-06-25T12:27:26.620Z,28.30
2018-06-25T12:29:56.639Z,28.40
2018-06-25T12:32:26.080Z,28.30
2018-06-25T12:34:55.538Z,28.20
2018-06-25T12:37:24.953Z,28.10
2018-06-25T12:39:54.446Z,28.00
2018-06-25T12:42:23.925Z,28.00
2018-06-25T12:47:22.231Z,27.90
2018-06-25T12:49:51.651Z,27.90
2018-06-25T12:52:21.048Z,27.90
2018-06-25T12:54:50.509Z,28.00
2018-06-25T12:57:20.082Z,28.10
2018-06-25T12:59:49.718Z,28.00
2018-06-25T13:04:48.168Z,28.10
2018-06-25T13:07:17.637Z,28.20
2018-06-25T13:09:47.178Z,28.10
2018-06-25T13:12:16.749Z,28.10
2018-06-25T13:17:15.102Z,28.10
2018-06-25T13:19:44.688Z,28.10
2018-06-25T13:22:14.855Z,28.20
2018-06-25T13:24:44.451Z,28.10
2018-06-25T13:27:13.875Z,28.00
2018-06-25T13:29:43.366Z,28.00
2018-06-25T13:32:12.877Z,28.10
2018-06-25T13:34:42.321Z,28.10
2018-06-25T13:37:12.036Z,28.20
2018-06-25T13:39:41.666Z,28.10
2018-06-25T13:42:11.205Z,28.20
2018-06-25T13:44:40.722Z,28.20
2018-06-25T13:47:10.300Z,28.20
2018-06-25T13:49:39.852Z,28.20
2018-06-25T13:52:09.459Z,28.20
2018-06-25T13:54:38.929Z,28.20
2018-06-25T13:57:08.666Z,28.10
2018-06-25T13:59:38.190Z,28.00
2018-06-25T14:02:07.983Z,28.00
2018-06-25T14:07:06.572Z,27.90
2018-06-25T14:12:05.187Z,27.80
2018-06-25T14:17:03.607Z,27.80
2018-06-25T14:19:33.056Z,27.80
2018-06-25T14:22:02.570Z,27.90
2018-06-25T14:24:37.168Z,27.90
2018-06-25T14:27:11.853Z,27.90
2018-06-25T14:29:41.329Z,27.90
2018-06-25T14:32:46.080Z,27.90
2018-06-25T14:37:45.156Z,27.70
2018-06-25T14:40:14.701Z,27.60
2018-06-25T14:42:44.098Z,27.50
2018-06-25T14:47:42.488Z,27.30
2018-06-25T14:52:40.773Z,27.30
2018-06-25T14:55:10.166Z,27.30
2018-06-25T14:57:39.561Z,27.30
2018-06-25T15:00:09.024Z,27.40
2018-06-25T15:02:38.430Z,27.30
2018-06-25T15:05:07.857Z,27.30
2018-06-25T15:07:37.273Z,27.20
2018-06-25T15:10:06.678Z,27.10
2018-06-25T15:12:36.047Z,27.10
2018-06-25T15:15:05.583Z,27.00
2018-06-25T15:17:34.971Z,27.00
2018-06-25T15:20:04.555Z,27.00
2018-06-25T15:22:33.949Z,26.90
2018-06-25T15:25:03.373Z,27.00
2018-06-25T15:27:32.765Z,26.90
2018-06-25T15:30:02.158Z,27.00
2018-06-25T15:32:32.615Z,27.00
2018-06-25T15:35:02.224Z,26.90
2018-06-25T15:37:31.652Z,26.90
2018-06-25T15:44:58.790Z,26.90
2018-06-25T15:47:28.144Z,26.80
2018-06-25T15:52:26.358Z,26.80
2018-06-25T15:54:55.812Z,26.80
2018-06-25T15:57:25.415Z,26.70
2018-06-25T15:59:55.177Z,26.70
2018-06-25T16:02:24.549Z,26.70
2018-06-25T16:04:57.697Z,26.70
2018-06-25T16:07:30.461Z,26.70
2018-06-25T16:09:59.850Z,26.60
2018-06-25T16:12:29.165Z,26.50
2018-06-25T16:14:58.501Z,26.60
2018-06-25T16:17:27.887Z,26.60
2018-06-25T16:19:57.283Z,26.50
2018-06-25T16:22:26.740Z,26.50
2018-06-25T16:27:25.001Z,26.50
2018-06-25T16:29:54.409Z,26.40
2018-06-25T16:32:23.745Z,26.50
2018-06-25T16:34:53.204Z,26.50
2018-06-25T16:37:22.598Z,26.50
2018-06-25T16:39:52.109Z,26.60
2018-06-25T16:42:21.450Z,26.70
2018-06-25T16:49:48.469Z,26.70
2018-06-25T16:52:17.837Z,26.70
2018-06-25T16:54:47.190Z,26.70
2018-06-25T16:57:16.635Z,26.70
2018-06-25T17:02:14.837Z,26.70
2018-06-25T17:07:13.126Z,26.80
2018-06-25T17:12:11.476Z,26.80
2018-06-25T17:14:41.303Z,26.90
2018-06-25T17:19:39.594Z,27.00
2018-06-25T17:22:08.886Z,27.00
2018-06-25T17:24:38.277Z,27.00
2018-06-25T17:27:07.568Z,27.10
2018-06-25T17:29:36.860Z,27.20
2018-06-25T17:32:06.215Z,27.20
2018-06-25T17:34:35.635Z,27.20
2018-06-25T17:39:33.819Z,27.20
2018-06-25T17:44:32.010Z,27.30
2018-06-25T17:49:31.078Z,27.30
2018-06-25T17:52:00.437Z,27.30
2018-06-25T17:54:29.823Z,27.30
2018-06-25T17:59:27.962Z,27.40
2018-06-25T18:01:57.286Z,27.40
2018-06-25T18:04:26.596Z,27.40
2018-06-25T18:06:55.939Z,27.40
2018-06-25T18:09:25.256Z,27.30
2018-06-25T18:11:54.623Z,27.30
2018-06-25T18:16:52.871Z,27.40
2018-06-25T18:19:22.209Z,27.30
2018-06-25T18:24:20.363Z,27.30
2018-06-25T18:26:49.639Z,27.30
2018-06-25T18:29:19.016Z,27.30
2018-06-25T18:31:48.306Z,27.30
2018-06-25T18:34:17.706Z,27.30
2018-06-25T18:39:16.041Z,27.40
2018-06-25T18:41:45.435Z,27.40
2018-06-25T18:44:14.879Z,27.30
2018-06-25T18:46:44.395Z,27.30
2018-06-25T18:51:42.570Z,27.40
2018-06-25T18:54:11.934Z,27.30
2018-06-25T18:56:41.246Z,27.30
2018-06-25T18:59:10.605Z,27.30
2018-06-25T19:04:08.824Z,27.30
2018-06-25T19:06:38.371Z,27.30
2018-06-25T19:09:10.918Z,27.30
2018-06-25T19:14:09.034Z,27.30
2018-06-25T19:16:38.342Z,27.20
2018-06-25T19:19:07.683Z,27.30
2018-06-25T19:21:37.023Z,27.30
2018-06-25T19:24:06.496Z,27.30
2018-06-25T19:26:35.967Z,27.20
2018-06-25T19:31:34.381Z,27.20
2018-06-25T19:34:03.892Z,27.20
2018-06-25T19:36:33.637Z,27.20
2018-06-25T19:39:04.472Z,27.20
2018-06-25T19:41:33.808Z,27.20
2018-06-25T19:44:03.179Z,27.20
2018-06-25T19:46:32.582Z,27.20
2018-06-25T19:49:01.932Z,27.20
2018-06-25T19:54:00.143Z,27.20
2018-06-25T19:56:34.453Z,27.20
2018-06-25T19:59:04.074Z,27.20
2018-06-25T20:04:02.303Z,27.20
2018-06-25T20:06:31.654Z,27.20
2018-06-25T20:11:41.760Z,27.10
2018-06-25T20:14:11.241Z,27.10
2018-06-25T20:16:46.411Z,27.10
2018-06-25T20:19:15.718Z,27.10
2018-06-25T20:21:45.126Z,27.10
2018-06-25T20:24:14.547Z,27.10
2018-06-25T20:26:43.956Z,27.10
2018-06-25T20:29:13.373Z,27.10
2018-06-25T20:34:11.573Z,27.10
2018-06-25T20:36:40.910Z,27.10
2018-06-25T20:39:11.962Z,27.00
2018-06-25T20:41:41.305Z,27.10
2018-06-25T20:44:10.750Z,27.00
2018-06-25T20:49:09.208Z,27.00
2018-06-25T20:51:38.710Z,27.00
2018-06-25T20:54:09.078Z,27.00
2018-06-25T20:56:38.498Z,27.00
2018-06-25T20:59:08.966Z,27.00
2018-06-25T21:01:38.365Z,27.00
2018-06-25T21:04:07.731Z,26.90
2018-06-25T21:06:40.577Z,26.90
2018-06-25T21:09:13.620Z,26.90
2018-06-25T21:11:43.437Z,26.90
2018-06-25T21:16:41.532Z,26.90
2018-06-25T21:19:11.036Z,26.90
2018-06-25T21:21:40.398Z,26.90
2018-06-25T21:24:09.789Z,26.90
2018-06-25T21:26:39.197Z,26.90
2018-06-25T21:29:08.567Z,26.90
2018-06-25T21:31:38.003Z,26.90
2018-06-25T21:34:08.198Z,26.90
2018-06-25T21:36:37.611Z,26.90
2018-06-25T21:39:19.601Z,26.90
2018-06-25T21:41:49.394Z,26.90
2018-06-25T21:44:19.579Z,26.90
2018-06-25T21:46:48.906Z,26.90
2018-06-25T21:49:18.479Z,26.90
2018-06-25T21:51:47.790Z,26.90
2018-06-25T21:54:17.154Z,26.90
2018-06-25T21:56:46.474Z,26.90
2018-06-25T21:59:15.801Z,26.90
2018-06-25T22:01:49.599Z,26.90
2018-06-25T22:04:18.919Z,26.90
2018-06-25T22:06:48.231Z,26.90
2018-06-25T22:09:17.623Z,26.80
2018-06-25T22:11:47.563Z,26.80
2018-06-25T22:14:16.886Z,26.80
2018-06-25T22:16:46.568Z,26.80
2018-06-25T22:19:15.847Z,26.80
2018-06-25T22:21:45.231Z,26.80
2018-06-25T22:24:14.531Z,26.80
2018-06-25T22:26:44.809Z,26.80
2018-06-25T22:29:14.132Z,26.80
2018-06-25T22:31:43.479Z,26.70
2018-06-25T22:34:12.779Z,26.80
2018-06-25T22:36:42.175Z,26.70
2018-06-25T22:39:12.494Z,26.70
2018-06-25T22:41:42.230Z,26.70
2018-06-25T22:44:13.154Z,26.70
2018-06-25T22:46:43.548Z,26.70
2018-06-25T22:49:13.036Z,26.80
2018-06-25T22:51:42.446Z,26.70
2018-06-25T22:54:11.791Z,26.70
2018-06-25T22:56:41.066Z,26.70
2018-06-25T22:59:10.419Z,26.70
2018-06-25T23:01:39.780Z,26.70
2018-06-25T23:04:09.095Z,26.70
2018-06-25T23:06:38.405Z,26.70
2018-06-25T23:09:09.995Z,26.70
2018-06-25T23:11:39.335Z,26.70
2018-06-25T23:14:08.651Z,26.70
2018-06-25T23:16:37.957Z,26.70
2018-06-25T23:19:07.295Z,26.70
2018-06-25T23:21:36.575Z,26.60
2018-06-25T23:24:05.924Z,26.60
2018-06-25T23:26:35.240Z,26.60
2018-06-25T23:29:04.531Z,26.60
2018-06-25T23:31:33.840Z,26.60
2018-06-25T23:34:03.187Z,26.60
2018-06-25T23:36:32.488Z,26.50
2018-06-25T23:39:01.761Z,26.50
2018-06-25T23:41:31.069Z,26.50
2018-06-25T23:44:00.389Z,26.50
2018-06-25T23:46:29.659Z,26.50
2018-06-25T23:48:59.303Z,26.50
2018-06-25T23:51:28.580Z,26.50
2018-06-25T23:53:57.856Z,26.40
2018-06-25T23:56:27.199Z,26.40
2018-06-25T23:58:56.503Z,26.40
